createdAt,value
2023-05-17T00:00:47.031Z,8.03
2023-05-17T00:02:49.690Z,7.95
2023-05-17T00:04:53.508Z,7.96
2023-05-17T00:06:56.365Z,8.00
2023-05-17T00:08:59.056Z,7.94
2023-05-17T00:11:01.827Z,7.90
2023-05-17T00:13:05.880Z,7.97
2023-05-17T00:15:09.255Z,7.97
2023-05-17T00:17:11.971Z,7.88
2023-05-17T00:19:14.890Z,7.81
2023-05-17T00:21:17.834Z,7.73
2023-05-17T00:23:20.506Z,7.63
2023-05-17T00:25:23.170Z,7.72
2023-05-17T00:27:25.878Z,7.63
2023-05-17T00:29:29.907Z,7.60
2023-05-17T00:31:32.597Z,7.74
2023-05-17T00:33:35.318Z,7.67
2023-05-17T00:35:37.946Z,7.69
2023-05-17T00:37:40.651Z,7.65
2023-05-17T00:39:43.544Z,7.57
2023-05-17T00:41:46.344Z,7.60
2023-05-17T00:43:49.045Z,7.58
2023-05-17T00:45:53.107Z,7.58
2023-05-17T00:47:55.933Z,7.50
2023-05-17T00:49:58.799Z,7.52
2023-05-17T00:52:01.867Z,7.54
2023-05-17T00:54:05.582Z,7.61
2023-05-17T00:56:08.615Z,7.71
2023-05-17T00:58:11.663Z,7.59
2023-05-17T01:00:15.096Z,7.65
2023-05-17T01:02:19.188Z,7.59
2023-05-17T01:04:22.053Z,7.60
2023-05-17T01:06:25.135Z,7.55
2023-05-17T01:08:27.852Z,7.57
2023-05-17T01:10:38.316Z,7.78
2023-05-17T01:12:51.837Z,7.48
2023-05-17T01:15:06.334Z,7.59
2023-05-17T01:17:15.604Z,7.56
2023-05-17T01:19:44.389Z,7.63
2023-05-17T01:22:04.329Z,7.71
2023-05-17T01:24:21.942Z,7.69
2023-05-17T01:26:40.180Z,7.62
2023-05-17T01:28:46.132Z,7.52
2023-05-17T01:30:52.462Z,7.63
2023-05-17T01:32:57.912Z,7.56
2023-05-17T01:35:00.753Z,7.64
2023-05-17T01:37:03.399Z,7.63
2023-05-17T01:39:06.069Z,7.65
2023-05-17T01:41:15.037Z,7.62
2023-05-17T01:43:26.040Z,7.64
2023-05-17T01:45:34.679Z,7.61
2023-05-17T01:47:44.287Z,7.60
2023-05-17T01:49:54.066Z,7.50
2023-05-17T01:51:59.781Z,7.49
2023-05-17T01:54:05.062Z,7.47
2023-05-17T01:56:11.018Z,7.48
2023-05-17T01:58:14.177Z,7.43
2023-05-17T02:00:20.419Z,7.34
2023-05-17T02:02:23.884Z,7.37
2023-05-17T02:04:26.555Z,7.30
2023-05-17T02:06:29.603Z,7.42
2023-05-17T02:08:32.376Z,7.36
2023-05-17T02:10:35.074Z,7.34
2023-05-17T02:12:37.731Z,7.22
2023-05-17T02:14:40.540Z,7.19
2023-05-17T02:16:44.576Z,7.14
2023-05-17T02:18:47.326Z,7.13
2023-05-17T02:20:50.141Z,7.03
2023-05-17T02:22:52.979Z,7.20
2023-05-17T02:24:55.942Z,7.00
2023-05-17T02:26:58.778Z,7.08
2023-05-17T02:29:01.513Z,6.96
2023-05-17T02:31:04.309Z,7.05
2023-05-17T02:33:08.753Z,7.11
2023-05-17T02:35:11.553Z,6.95
2023-05-17T02:37:14.296Z,6.94
2023-05-17T02:39:17.074Z,6.86
2023-05-17T02:41:19.804Z,6.87
2023-05-17T02:43:22.569Z,6.65
2023-05-17T02:45:25.227Z,6.61
2023-05-17T02:47:28.116Z,6.65
2023-05-17T02:49:32.285Z,6.76
2023-05-17T02:51:35.015Z,6.66
2023-05-17T02:53:37.740Z,6.74
2023-05-17T02:55:40.459Z,6.71
2023-05-17T02:57:43.155Z,6.77
2023-05-17T02:59:45.906Z,6.67
2023-05-17T03:01:49.815Z,6.52
2023-05-17T03:03:52.706Z,6.46
2023-05-17T03:06:01.285Z,6.50
2023-05-17T03:08:04.142Z,6.40
2023-05-17T03:10:08.049Z,6.38
2023-05-17T03:12:11.422Z,6.30
2023-05-17T03:14:14.188Z,6.27
2023-05-17T03:16:16.870Z,6.28
2023-05-17T03:18:19.649Z,6.28
2023-05-17T03:20:22.567Z,6.19
2023-05-17T03:22:26.672Z,6.26
2023-05-17T03:24:29.312Z,6.18
2023-05-17T03:26:33.446Z,6.23
2023-05-17T03:28:36.168Z,6.21
2023-05-17T03:30:38.999Z,6.25
2023-05-17T03:32:42.194Z,6.17
2023-05-17T03:34:45.009Z,6.10
2023-05-17T03:36:47.963Z,6.10
2023-05-17T03:38:52.188Z,6.10
2023-05-17T03:40:55.942Z,6.15
2023-05-17T03:42:58.678Z,6.21
2023-05-17T03:45:01.533Z,6.07
2023-05-17T03:47:04.230Z,6.13
2023-05-17T03:49:07.061Z,6.15
2023-05-17T03:51:10.138Z,6.10
2023-05-17T03:53:13.054Z,6.14
2023-05-17T03:55:17.184Z,6.14
2023-05-17T03:57:20.795Z,6.12
2023-05-17T03:59:23.653Z,6.08
2023-05-17T04:01:26.393Z,6.06
2023-05-17T04:03:29.205Z,6.23
2023-05-17T04:05:32.825Z,6.26
2023-05-17T04:07:35.561Z,6.25
2023-05-17T04:09:38.197Z,6.29
2023-05-17T04:11:42.576Z,6.31
2023-05-17T04:13:45.306Z,6.29
2023-05-17T04:15:47.972Z,6.46
2023-05-17T04:17:50.983Z,6.43
2023-05-17T04:19:53.846Z,6.57
2023-05-17T04:21:56.659Z,6.66
2023-05-17T04:23:59.472Z,6.68
2023-05-17T04:26:03.152Z,6.55
2023-05-17T04:28:07.211Z,6.56
2023-05-17T04:30:10.824Z,6.65
2023-05-17T04:32:14.184Z,6.68
2023-05-17T04:34:16.895Z,6.98
2023-05-17T04:36:19.653Z,7.01
2023-05-17T04:38:26.806Z,7.38
2023-05-17T04:40:37.973Z,7.26
2023-05-17T04:42:42.738Z,7.66
2023-05-17T04:44:46.872Z,7.74
2023-05-17T04:46:49.632Z,7.98
2023-05-17T04:48:53.361Z,8.30
2023-05-17T04:50:56.216Z,8.34
2023-05-17T04:52:59.498Z,8.43
2023-05-17T04:55:03.270Z,8.22
2023-05-17T04:57:06.450Z,7.85
2023-05-17T04:59:09.214Z,8.15
2023-05-17T05:01:13.256Z,8.72
2023-05-17T05:03:15.993Z,8.18
2023-05-17T05:05:19.739Z,8.99
2023-05-17T05:07:22.423Z,8.83
2023-05-17T05:09:25.083Z,8.52
2023-05-17T05:11:27.821Z,8.32
2023-05-17T05:13:30.999Z,8.01
2023-05-17T05:15:33.903Z,8.19
2023-05-17T05:17:38.056Z,7.95
2023-05-17T05:19:40.879Z,7.85
2023-05-17T05:21:46.046Z,7.84
2023-05-17T05:23:48.757Z,7.90
2023-05-17T05:25:51.762Z,7.83
2023-05-17T05:27:54.476Z,8.04
2023-05-17T05:29:57.190Z,8.02
2023-05-17T05:31:59.883Z,8.18
2023-05-17T05:34:04.284Z,8.06
2023-05-17T05:36:07.864Z,8.57
2023-05-17T05:38:10.645Z,8.36
2023-05-17T05:40:14.366Z,8.25
2023-05-17T05:42:17.028Z,7.71
2023-05-17T05:44:19.879Z,8.01
2023-05-17T05:46:22.640Z,8.06
2023-05-17T05:48:25.551Z,8.13
2023-05-17T05:50:29.923Z,8.25
2023-05-17T05:52:32.899Z,8.46
2023-05-17T05:54:35.604Z,8.25
2023-05-17T05:56:38.272Z,8.11
2023-05-17T05:58:40.969Z,8.34
2023-05-17T06:00:43.700Z,8.55
2023-05-17T06:02:46.936Z,8.47
2023-05-17T06:04:49.844Z,8.68
2023-05-17T06:06:55.724Z,8.83
2023-05-17T06:08:59.789Z,8.97
2023-05-17T06:11:02.661Z,8.94
2023-05-17T06:13:05.384Z,9.22
2023-05-17T06:15:09.512Z,9.82
2023-05-17T06:17:12.242Z,10.09
2023-05-17T06:19:15.169Z,9.27
2023-05-17T06:21:18.528Z,9.84
2023-05-17T06:23:22.707Z,10.01
2023-05-17T06:25:25.381Z,9.99
2023-05-17T06:27:28.116Z,10.43
2023-05-17T06:29:30.769Z,9.78
2023-05-17T06:31:33.472Z,9.97
2023-05-17T06:33:36.246Z,10.24
2023-05-17T06:35:54.839Z,9.73
2023-05-17T06:37:58.675Z,9.39
2023-05-17T06:40:15.485Z,10.38
2023-05-17T06:42:19.643Z,9.57
2023-05-17T06:44:22.356Z,9.80
2023-05-17T06:46:25.141Z,9.20
2023-05-17T06:48:27.898Z,10.15
2023-05-17T06:50:32.203Z,9.82
2023-05-17T06:52:35.946Z,10.46
2023-05-17T06:54:38.645Z,10.62
2023-05-17T06:56:44.096Z,10.85
2023-05-17T06:58:46.840Z,11.02
2023-05-17T07:00:49.685Z,11.41
2023-05-17T07:02:52.866Z,12.09
2023-05-17T07:04:56.833Z,11.53
2023-05-17T07:06:59.578Z,10.86
2023-05-17T07:09:02.316Z,11.07
2023-05-17T07:11:05.262Z,10.88
2023-05-17T07:13:09.368Z,11.08
2023-05-17T07:15:12.682Z,11.95
2023-05-17T07:17:15.412Z,12.82
2023-05-17T07:19:18.302Z,11.76
2023-05-17T07:21:21.330Z,11.87
2023-05-17T07:23:24.067Z,11.71
2023-05-17T07:25:26.981Z,10.80
2023-05-17T07:27:29.880Z,12.24
2023-05-17T07:29:33.947Z,12.37
2023-05-17T07:31:36.833Z,12.28
2023-05-17T07:33:39.748Z,11.24
2023-05-17T07:35:42.439Z,10.52
2023-05-17T07:37:45.972Z,10.61
2023-05-17T07:39:48.692Z,11.27
2023-05-17T07:41:51.582Z,11.13
2023-05-17T07:43:54.315Z,11.09
2023-05-17T07:45:58.658Z,12.20
2023-05-17T07:48:01.492Z,10.93
2023-05-17T07:50:04.706Z,11.52
2023-05-17T07:52:07.703Z,12.06
2023-05-17T07:54:10.415Z,12.83
2023-05-17T07:56:13.099Z,13.00
2023-05-17T07:58:15.928Z,12.84
2023-05-17T08:00:19.812Z,12.25
2023-05-17T08:02:23.844Z,12.29
2023-05-17T08:04:26.640Z,13.97
2023-05-17T08:06:29.407Z,14.53
2023-05-17T08:08:32.135Z,14.66
2023-05-17T08:10:36.008Z,13.83
2023-05-17T08:12:38.691Z,14.20
2023-05-17T08:14:41.380Z,13.48
2023-05-17T08:16:44.252Z,14.97
2023-05-17T08:18:48.473Z,12.95
2023-05-17T08:20:51.362Z,14.53
2023-05-17T08:22:56.090Z,15.05
2023-05-17T08:24:58.808Z,15.26
2023-05-17T08:27:02.137Z,14.11
2023-05-17T08:29:05.738Z,13.23
2023-05-17T08:31:08.512Z,13.77
2023-05-17T08:33:12.037Z,14.86
2023-05-17T08:35:16.092Z,14.15
2023-05-17T08:37:19.012Z,14.44
2023-05-17T08:39:22.054Z,15.03
2023-05-17T08:41:25.816Z,13.61
2023-05-17T08:43:29.261Z,13.87
2023-05-17T08:45:32.401Z,13.81
2023-05-17T08:47:37.929Z,13.65
2023-05-17T08:49:40.852Z,13.84
2023-05-17T08:51:47.653Z,13.05
2023-05-17T08:53:51.146Z,13.18
2023-05-17T08:56:02.395Z,13.56
2023-05-17T08:58:07.161Z,12.63
2023-05-17T09:00:14.469Z,12.77
2023-05-17T09:02:17.598Z,12.93
2023-05-17T09:04:20.567Z,12.76
2023-05-17T09:06:25.046Z,11.35
2023-05-17T09:08:32.864Z,12.46
2023-05-17T09:10:35.684Z,11.35
2023-05-17T09:12:38.413Z,11.37
2023-05-17T09:14:41.066Z,11.85
2023-05-17T09:16:44.615Z,12.00
2023-05-17T09:18:54.810Z,13.22
2023-05-17T09:21:02.609Z,12.68
2023-05-17T09:23:05.459Z,13.25
2023-05-17T09:25:10.290Z,13.10
2023-05-17T09:27:16.848Z,12.59
2023-05-17T09:29:19.374Z,12.40
2023-05-17T09:31:22.160Z,13.15
2023-05-17T09:33:24.870Z,13.88
2023-05-17T09:35:31.868Z,12.87
2023-05-17T09:37:34.638Z,13.04
2023-05-17T09:39:37.989Z,12.61
2023-05-17T09:41:48.038Z,12.73
2023-05-17T09:43:51.458Z,12.12
2023-05-17T09:45:58.660Z,12.51
2023-05-17T09:48:13.768Z,13.18
2023-05-17T09:50:19.751Z,13.89
2023-05-17T09:52:22.701Z,13.59
2023-05-17T09:54:25.392Z,13.36
2023-05-17T09:56:30.088Z,13.17
2023-05-17T09:58:37.193Z,13.20
2023-05-17T10:00:40.548Z,12.76
2023-05-17T10:02:47.119Z,12.86
2023-05-17T10:04:51.758Z,13.22
2023-05-17T10:06:55.006Z,13.25
2023-05-17T10:09:00.058Z,13.85
2023-05-17T10:11:08.011Z,12.86
2023-05-17T10:13:14.000Z,12.85
2023-05-17T10:15:18.557Z,13.52
2023-05-17T10:17:21.984Z,13.67
2023-05-17T10:19:26.408Z,13.89
2023-05-17T10:21:29.963Z,12.84
2023-05-17T10:23:32.990Z,12.67
2023-05-17T10:25:36.694Z,12.52
2023-05-17T10:27:39.660Z,12.97
2023-05-17T10:29:42.770Z,13.06
2023-05-17T10:31:47.887Z,13.86
2023-05-17T10:33:52.557Z,14.40
2023-05-17T10:35:57.234Z,13.81
2023-05-17T10:37:59.988Z,14.93
2023-05-17T10:40:03.010Z,15.03
2023-05-17T10:42:14.961Z,15.58
2023-05-17T10:44:18.809Z,14.31
2023-05-17T10:46:22.313Z,13.42
2023-05-17T10:48:30.997Z,12.76
2023-05-17T10:50:33.901Z,13.24
2023-05-17T10:52:40.144Z,13.97
2023-05-17T10:54:44.272Z,14.67
2023-05-17T10:56:51.143Z,14.03
2023-05-17T10:59:22.710Z,14.83
2023-05-17T11:01:56.390Z,14.30
2023-05-17T11:04:25.883Z,14.91
2023-05-17T11:06:36.670Z,14.26
2023-05-17T11:08:46.180Z,14.54
2023-05-17T11:11:11.455Z,13.73
2023-05-17T11:13:23.767Z,13.31
2023-05-17T11:15:26.798Z,13.41
2023-05-17T11:17:36.704Z,13.70
2023-05-17T11:19:49.925Z,13.50
2023-05-17T11:21:52.715Z,13.74
2023-05-17T11:23:57.420Z,12.87
2023-05-17T11:26:16.219Z,13.91
2023-05-17T11:28:21.408Z,14.06
2023-05-17T11:30:26.720Z,13.60
2023-05-17T11:32:30.195Z,13.08
2023-05-17T11:34:34.843Z,14.15
2023-05-17T11:36:52.227Z,13.64
2023-05-17T11:39:11.917Z,13.17
2023-05-17T11:43:27.342Z,12.81
2023-05-17T11:45:36.429Z,12.58
2023-05-17T11:47:43.122Z,12.55
2023-05-17T11:49:46.543Z,12.06
2023-05-17T11:51:51.311Z,12.20
2023-05-17T11:53:56.002Z,12.03
2023-05-17T11:56:03.296Z,12.31
2023-05-17T11:58:08.117Z,11.98
2023-05-17T12:00:12.219Z,12.07
2023-05-17T12:02:27.677Z,12.58
2023-05-17T12:04:32.622Z,12.81
2023-05-17T12:06:36.557Z,12.65
2023-05-17T12:08:44.253Z,12.64
2023-05-17T12:10:49.419Z,12.74
2023-05-17T12:12:52.319Z,12.71
2023-05-17T12:14:55.034Z,12.88
2023-05-17T12:17:02.499Z,13.13
2023-05-17T12:19:05.319Z,12.97
2023-05-17T12:21:09.143Z,11.86
2023-05-17T12:23:11.872Z,12.79
2023-05-17T12:25:23.551Z,12.72
2023-05-17T12:27:27.424Z,13.51
2023-05-17T12:29:30.970Z,12.56
2023-05-17T12:31:35.735Z,13.15
2023-05-17T12:33:41.277Z,13.17
2023-05-17T12:35:44.294Z,13.05
2023-05-17T12:37:47.246Z,12.96
2023-05-17T12:39:50.075Z,13.29
2023-05-17T12:41:54.724Z,13.53
2023-05-17T12:44:13.858Z,13.78
2023-05-17T12:46:20.398Z,13.38
2023-05-17T12:48:27.217Z,13.05
2023-05-17T12:50:31.321Z,13.12
2023-05-17T12:52:37.170Z,12.84
2023-05-17T12:54:40.758Z,12.82
2023-05-17T12:56:44.629Z,13.00
2023-05-17T12:59:06.113Z,12.78
2023-05-17T13:01:13.628Z,12.59
2023-05-17T13:03:16.518Z,12.15
2023-05-17T13:05:21.567Z,12.01
2023-05-17T13:07:25.115Z,12.15
2023-05-17T13:09:30.819Z,11.91
2023-05-17T13:11:35.964Z,12.30
2023-05-17T13:13:38.909Z,12.17
2023-05-17T13:15:46.325Z,12.17
2023-05-17T13:17:51.072Z,12.27
2023-05-17T13:19:54.025Z,12.64
2023-05-17T13:21:56.822Z,12.43
2023-05-17T13:23:59.488Z,12.51
2023-05-17T13:26:02.149Z,12.56
2023-05-17T13:28:04.969Z,12.31
2023-05-17T13:30:09.297Z,12.53
2023-05-17T13:32:14.259Z,12.22
2023-05-17T13:34:16.964Z,12.88
2023-05-17T13:36:19.679Z,12.95
2023-05-17T13:38:22.309Z,12.46
2023-05-17T13:40:24.976Z,12.27
2023-05-17T13:42:27.739Z,12.32
2023-05-17T13:44:30.591Z,12.45
2023-05-17T13:46:33.506Z,11.95
2023-05-17T13:48:39.175Z,12.14
2023-05-17T13:50:43.876Z,12.01
2023-05-17T13:52:46.629Z,12.08
2023-05-17T13:54:49.269Z,12.82
2023-05-17T13:56:52.221Z,12.62
2023-05-17T13:58:54.934Z,12.58
2023-05-17T14:00:57.748Z,12.28
2023-05-17T14:03:00.554Z,12.55
2023-05-17T14:05:05.444Z,12.46
2023-05-17T14:07:08.172Z,12.82
2023-05-17T14:09:11.807Z,13.03
2023-05-17T14:11:14.541Z,13.12
2023-05-17T14:13:17.262Z,13.10
2023-05-17T14:15:19.950Z,13.23
2023-05-17T14:17:22.684Z,12.91
2023-05-17T14:19:25.479Z,13.37
2023-05-17T14:21:29.670Z,13.58
2023-05-17T14:23:32.344Z,13.38
2023-05-17T14:25:35.018Z,13.11
2023-05-17T14:27:37.818Z,12.72
2023-05-17T14:29:40.630Z,12.93
2023-05-17T14:31:43.405Z,12.68
2023-05-17T14:33:46.227Z,12.50
2023-05-17T14:35:49.239Z,12.44
2023-05-17T14:37:53.285Z,12.49
2023-05-17T14:40:05.782Z,12.31
2023-05-17T14:42:09.362Z,12.88
2023-05-17T14:44:12.151Z,12.65
2023-05-17T14:46:15.129Z,12.47
2023-05-17T14:48:17.902Z,12.64
2023-05-17T14:50:20.817Z,12.39
2023-05-17T14:52:23.690Z,12.43
2023-05-17T14:54:29.793Z,12.78
2023-05-17T14:56:32.907Z,12.82
2023-05-17T14:58:35.780Z,13.09
2023-05-17T15:00:38.563Z,13.27
2023-05-17T15:02:41.323Z,12.83
2023-05-17T15:04:44.138Z,12.97
2023-05-17T15:06:47.030Z,12.64
2023-05-17T15:08:49.695Z,13.11
2023-05-17T15:10:54.493Z,13.28
2023-05-17T15:12:57.409Z,13.04
2023-05-17T15:15:00.157Z,12.73
2023-05-17T15:17:04.218Z,12.83
2023-05-17T15:19:07.660Z,12.61
2023-05-17T15:21:11.373Z,12.53
2023-05-17T15:23:14.021Z,12.65
2023-05-17T15:25:16.954Z,12.46
2023-05-17T15:27:21.055Z,12.50
2023-05-17T15:29:23.750Z,12.55
2023-05-17T15:31:28.568Z,12.29
2023-05-17T15:33:32.216Z,12.49
2023-05-17T15:35:35.070Z,12.30
2023-05-17T15:37:37.876Z,12.27
2023-05-17T15:39:40.566Z,12.10
2023-05-17T15:41:45.511Z,12.21
2023-05-17T15:43:49.613Z,11.95
2023-05-17T15:45:52.349Z,11.99
2023-05-17T15:47:56.603Z,11.96
2023-05-17T15:49:59.363Z,12.04
2023-05-17T15:52:02.126Z,12.22
2023-05-17T15:54:05.153Z,12.09
2023-05-17T15:56:10.016Z,12.50
2023-05-17T15:58:12.699Z,12.18
2023-05-17T16:00:17.420Z,12.01
2023-05-17T16:02:20.104Z,12.25
2023-05-17T16:04:22.837Z,12.23
2023-05-17T16:06:25.858Z,12.21
2023-05-17T16:08:28.622Z,12.25
2023-05-17T16:10:31.295Z,12.16
2023-05-17T16:12:33.979Z,11.83
2023-05-17T16:14:37.161Z,11.93
2023-05-17T16:16:42.106Z,11.67
2023-05-17T16:18:45.375Z,11.58
2023-05-17T16:20:48.230Z,11.50
2023-05-17T16:22:52.017Z,11.70
2023-05-17T16:24:55.240Z,11.90
2023-05-17T16:26:59.028Z,12.08
2023-05-17T16:29:01.797Z,12.20
2023-05-17T16:31:05.533Z,12.21
2023-05-17T16:33:09.721Z,12.26
2023-05-17T16:35:12.757Z,12.04
2023-05-17T16:37:15.809Z,12.32
2023-05-17T16:39:18.478Z,12.29
2023-05-17T16:41:21.255Z,12.00
2023-05-17T16:43:23.996Z,11.88
2023-05-17T16:45:26.630Z,11.52
2023-05-17T16:47:29.498Z,11.50
2023-05-17T16:49:33.603Z,11.48
2023-05-17T16:51:36.354Z,11.45
2023-05-17T16:53:39.089Z,11.56
2023-05-17T16:55:42.117Z,11.42
2023-05-17T16:57:44.803Z,11.68
2023-05-17T16:59:47.502Z,11.68
2023-05-17T17:01:50.261Z,11.63
2023-05-17T17:03:53.029Z,11.61
2023-05-17T17:05:57.087Z,11.69
2023-05-17T17:07:59.893Z,11.61
2023-05-17T17:10:02.560Z,11.52
2023-05-17T17:12:20.175Z,11.66
2023-05-17T17:14:26.130Z,11.61
2023-05-17T17:16:29.288Z,11.69
2023-05-17T17:18:32.274Z,11.59
2023-05-17T17:20:35.058Z,11.58
2023-05-17T17:22:39.184Z,11.65
2023-05-17T17:24:41.889Z,11.66
2023-05-17T17:26:45.071Z,11.57
2023-05-17T17:28:47.741Z,11.52
2023-05-17T17:30:50.744Z,11.40
2023-05-17T17:32:53.514Z,11.40
2023-05-17T17:34:56.338Z,11.55
2023-05-17T17:36:59.257Z,11.54
2023-05-17T17:39:03.350Z,11.61
2023-05-17T17:41:06.312Z,11.58
2023-05-17T17:43:09.142Z,11.59
2023-05-17T17:45:12.108Z,11.72
2023-05-17T17:47:14.963Z,11.43
2023-05-17T17:49:17.706Z,11.42
2023-05-17T17:51:20.389Z,11.38
2023-05-17T17:53:23.323Z,11.37
2023-05-17T17:55:27.611Z,11.47
2023-05-17T17:57:31.916Z,11.58
2023-05-17T17:59:34.792Z,11.34
2023-05-17T18:01:38.313Z,11.27
2023-05-17T18:03:41.043Z,11.35
2023-05-17T18:05:43.860Z,11.22
2023-05-17T18:07:46.568Z,11.17
2023-05-17T18:09:49.396Z,11.27
2023-05-17T18:11:53.434Z,11.44
2023-05-17T18:13:56.538Z,11.35
2023-05-17T18:15:59.933Z,11.33
2023-05-17T18:18:02.690Z,11.42
2023-05-17T18:20:07.115Z,11.50
2023-05-17T18:22:09.774Z,11.21
2023-05-17T18:24:12.501Z,11.22
2023-05-17T18:26:15.206Z,11.13
2023-05-17T18:28:26.865Z,11.06
2023-05-17T18:30:40.763Z,11.02
2023-05-17T18:32:43.534Z,11.11
2023-05-17T18:34:46.408Z,11.04
2023-05-17T18:36:49.117Z,10.82
2023-05-17T18:38:52.488Z,10.89
2023-05-17T18:40:55.206Z,10.70
2023-05-17T18:42:57.902Z,10.84
2023-05-17T18:45:01.989Z,10.82
2023-05-17T18:47:04.791Z,10.82
2023-05-17T18:49:07.719Z,10.59
2023-05-17T18:51:10.621Z,10.44
2023-05-17T18:53:14.495Z,10.43
2023-05-17T18:55:17.258Z,10.39
2023-05-17T18:57:20.063Z,10.33
2023-05-17T18:59:22.746Z,10.24
2023-05-17T19:01:27.360Z,10.38
2023-05-17T19:03:30.118Z,10.36
2023-05-17T19:05:32.999Z,10.49
2023-05-17T19:07:35.728Z,10.14
2023-05-17T19:09:38.811Z,10.28
2023-05-17T19:11:42.147Z,10.05
2023-05-17T19:13:45.105Z,10.07
2023-05-17T19:15:48.739Z,10.14
2023-05-17T19:17:52.902Z,10.19
2023-05-17T19:19:55.660Z,10.05
2023-05-17T19:22:00.436Z,9.91
2023-05-17T19:24:03.454Z,9.96
2023-05-17T19:26:06.146Z,10.01
2023-05-17T19:28:08.893Z,9.97
2023-05-17T19:30:12.485Z,9.95
2023-05-17T19:32:15.380Z,9.88
2023-05-17T19:34:19.384Z,9.86
2023-05-17T19:36:22.043Z,9.85
2023-05-17T19:38:24.736Z,9.76
2023-05-17T19:40:27.825Z,9.93
2023-05-17T19:42:30.903Z,10.03
2023-05-17T19:44:33.769Z,9.84
2023-05-17T19:46:36.500Z,9.56
2023-05-17T19:48:39.920Z,9.91
2023-05-17T19:50:44.111Z,9.84
2023-05-17T19:52:47.058Z,9.59
2023-05-17T19:54:49.726Z,9.49
2023-05-17T19:56:52.476Z,9.43
2023-05-17T19:58:55.252Z,9.48
2023-05-17T20:00:57.893Z,9.32
2023-05-17T20:03:00.970Z,9.21
2023-05-17T20:05:03.810Z,9.16
2023-05-17T20:07:08.491Z,9.30
2023-05-17T20:09:11.152Z,9.32
2023-05-17T20:11:14.132Z,9.22
2023-05-17T20:13:18.987Z,9.14
2023-05-17T20:15:22.776Z,9.16
2023-05-17T20:17:25.522Z,9.18
2023-05-17T20:19:28.357Z,9.09
2023-05-17T20:21:31.780Z,9.08
2023-05-17T20:23:36.174Z,8.99
2023-05-17T20:25:40.973Z,8.98
2023-05-17T20:27:44.660Z,8.91
2023-05-17T20:29:47.385Z,8.90
2023-05-17T20:31:50.677Z,8.89
2023-05-17T20:33:54.789Z,8.81
2023-05-17T20:35:58.922Z,8.85
2023-05-17T20:38:01.635Z,8.86
2023-05-17T20:40:09.161Z,8.81
2023-05-17T20:42:18.195Z,9.02
2023-05-17T20:44:21.802Z,8.91
2023-05-17T20:46:24.621Z,8.92
2023-05-17T20:48:27.603Z,8.95
2023-05-17T20:50:30.659Z,8.97
2023-05-17T20:52:39.388Z,8.89
2023-05-17T20:54:42.938Z,8.85
2023-05-17T20:56:47.805Z,8.86
2023-05-17T20:58:50.576Z,8.82
2023-05-17T21:00:53.654Z,8.74
2023-05-17T21:02:56.341Z,8.71
2023-05-17T21:05:00.763Z,8.69
2023-05-17T21:07:03.506Z,8.64
2023-05-17T21:09:06.516Z,8.64
2023-05-17T21:11:09.453Z,8.58
2023-05-17T21:13:14.675Z,8.63
2023-05-17T21:15:17.611Z,8.66
2023-05-17T21:17:20.337Z,8.48
2023-05-17T21:19:23.102Z,8.55
2023-05-17T21:21:25.945Z,8.56
2023-05-17T21:23:28.742Z,8.44
2023-05-17T21:25:31.746Z,8.43
2023-05-17T21:27:35.057Z,8.65
2023-05-17T21:29:39.171Z,8.68
2023-05-17T21:31:41.888Z,8.58
2023-05-17T21:33:44.679Z,8.57
2023-05-17T21:35:47.456Z,8.60
2023-05-17T21:37:50.359Z,8.54
2023-05-17T21:39:53.044Z,8.56
2023-05-17T21:41:55.760Z,8.52
2023-05-17T21:43:58.457Z,8.47
2023-05-17T21:46:02.658Z,8.33
2023-05-17T21:48:06.119Z,8.50
2023-05-17T21:50:09.264Z,8.37
2023-05-17T21:52:12.063Z,8.51
2023-05-17T21:54:14.823Z,8.29
2023-05-17T21:56:17.660Z,8.33
2023-05-17T21:58:21.270Z,8.30
2023-05-17T22:00:26.933Z,8.30
2023-05-17T22:02:31.175Z,8.27
2023-05-17T22:04:33.912Z,8.27
2023-05-17T22:06:36.727Z,8.24
2023-05-17T22:08:42.171Z,8.23
2023-05-17T22:10:44.847Z,8.20
2023-05-17T22:12:54.186Z,8.08
2023-05-17T22:14:57.489Z,7.99
2023-05-17T22:17:00.366Z,7.96
2023-05-17T22:19:06.034Z,7.97
2023-05-17T22:21:08.910Z,8.01
2023-05-17T22:23:11.880Z,7.91
2023-05-17T22:25:15.793Z,8.09
2023-05-17T22:27:19.766Z,8.13
2023-05-17T22:29:22.601Z,7.87
2023-05-17T22:31:26.215Z,8.04
2023-05-17T22:33:31.054Z,8.01
2023-05-17T22:35:35.152Z,8.07
2023-05-17T22:37:37.897Z,7.96
2023-05-17T22:39:41.797Z,7.90
2023-05-17T22:41:44.576Z,7.76
2023-05-17T22:43:47.312Z,7.77
2023-05-17T22:45:50.640Z,7.71
2023-05-17T22:47:54.210Z,7.64
2023-05-17T22:49:57.639Z,7.61
2023-05-17T22:52:05.328Z,7.67
2023-05-17T22:54:08.074Z,7.57
2023-05-17T22:56:10.777Z,7.43
2023-05-17T22:58:13.495Z,7.51
2023-05-17T23:00:17.226Z,7.41
2023-05-17T23:02:20.040Z,7.44
2023-05-17T23:04:25.876Z,7.50
2023-05-17T23:06:32.067Z,7.47
2023-05-17T23:08:36.274Z,7.38
2023-05-17T23:10:38.921Z,7.47
2023-05-17T23:12:41.609Z,7.42
2023-05-17T23:14:44.383Z,7.46
2023-05-17T23:16:47.041Z,7.28
2023-05-17T23:18:49.718Z,7.32
2023-05-17T23:20:52.574Z,7.29
2023-05-17T23:22:55.264Z,7.27
2023-05-17T23:25:00.297Z,7.24
2023-05-17T23:27:03.059Z,7.19
2023-05-17T23:29:05.769Z,7.13
2023-05-17T23:31:08.508Z,7.12
2023-05-17T23:33:11.622Z,7.12
2023-05-17T23:35:14.312Z,7.14
2023-05-17T23:37:17.240Z,7.11
2023-05-17T23:39:19.986Z,7.13
2023-05-17T23:41:25.379Z,7.40
2023-05-17T23:43:28.190Z,7.51
2023-05-17T23:45:32.291Z,7.59
2023-05-17T23:47:35.267Z,7.67
2023-05-17T23:49:38.054Z,7.70
2023-05-17T23:51:40.890Z,7.71
2023-05-17T23:53:43.588Z,7.68
2023-05-17T23:55:46.579Z,7.77
2023-05-17T23:57:50.714Z,7.75
2023-05-17T23:59:53.544Z,7.72
